sensor_id;sensor_type;location;lat;lon;timestamp;P1;durP1;ratioP1;P2;durP2;ratioP2
8331;SDS011;4203;48.144;14.118;2023-07-09T00:00:11;7.13;;;6.55;;
8331;SDS011;4203;48.144;14.118;2023-07-09T00:02:41;8.02;;;7.22;;
8331;SDS011;4203;48.144;14.118;2023-07-09T00:05:10;10.20;;;7.03;;
8331;SDS011;4203;48.144;14.118;2023-07-09T00:07:39;7.43;;;6.82;;
8331;SDS011;4203;48.144;14.118;2023-07-09T00:10:16;8.00;;;7.20;;
8331;SDS011;4203;48.144;14.118;2023-07-09T00:12:44;7.40;;;6.70;;
8331;SDS011;4203;48.144;14.118;2023-07-09T00:15:13;8.00;;;6.78;;
8331;SDS011;4203;48.144;14.118;2023-07-09T00:17:43;7.43;;;6.80;;
8331;SDS011;4203;48.144;14.118;2023-07-09T00:20:12;8.23;;;7.38;;
8331;SDS011;4203;48.144;14.118;2023-07-09T00:22:40;8.65;;;7.85;;
8331;SDS011;4203;48.144;14.118;2023-07-09T00:25:13;8.77;;;7.93;;
8331;SDS011;4203;48.144;14.118;2023-07-09T00:27:43;9.80;;;7.82;;
8331;SDS011;4203;48.144;14.118;2023-07-09T00:30:14;9.13;;;7.80;;
8331;SDS011;4203;48.144;14.118;2023-07-09T00:32:43;8.15;;;7.45;;
8331;SDS011;4203;48.144;14.118;2023-07-09T00:35:10;8.93;;;7.95;;
8331;SDS011;4203;48.144;14.118;2023-07-09T00:37:40;8.30;;;7.63;;
8331;SDS011;4203;48.144;14.118;2023-07-09T00:40:18;8.40;;;7.55;;
8331;SDS011;4203;48.144;14.118;2023-07-09T00:42:49;10.70;;;8.10;;
8331;SDS011;4203;48.144;14.118;2023-07-09T00:45:20;8.40;;;7.50;;
8331;SDS011;4203;48.144;14.118;2023-07-09T00:47:50;8.13;;;7.43;;
8331;SDS011;4203;48.144;14.118;2023-07-09T00:50:30;8.98;;;8.00;;
8331;SDS011;4203;48.144;14.118;2023-07-09T00:53:02;10.77;;;7.85;;
8331;SDS011;4203;48.144;14.118;2023-07-09T00:55:36;9.15;;;7.65;;
8331;SDS011;4203;48.144;14.118;2023-07-09T00:58:11;9.07;;;7.97;;
8331;SDS011;4203;48.144;14.118;2023-07-09T01:00:43;10.15;;;8.65;;
8331;SDS011;4203;48.144;14.118;2023-07-09T01:03:14;8.70;;;7.97;;
8331;SDS011;4203;48.144;14.118;2023-07-09T01:05:48;8.98;;;8.18;;
8331;SDS011;4203;48.144;14.118;2023-07-09T01:08:17;8.93;;;8.00;;
8331;SDS011;4203;48.144;14.118;2023-07-09T01:10:46;8.60;;;7.80;;
8331;SDS011;4203;48.144;14.118;2023-07-09T01:13:16;9.60;;;8.07;;
8331;SDS011;4203;48.144;14.118;2023-07-09T01:15:45;9.00;;;8.20;;
8331;SDS011;4203;48.144;14.118;2023-07-09T01:18:13;8.80;;;8.10;;
8331;SDS011;4203;48.144;14.118;2023-07-09T01:20:41;10.27;;;8.07;;
8331;SDS011;4203;48.144;14.118;2023-07-09T01:23:10;8.98;;;8.18;;
8331;SDS011;4203;48.144;14.118;2023-07-09T01:25:38;8.82;;;8.00;;
8331;SDS011;4203;48.144;14.118;2023-07-09T01:28:10;9.50;;;7.72;;
8331;SDS011;4203;48.144;14.118;2023-07-09T01:30:38;8.80;;;8.02;;
8331;SDS011;4203;48.144;14.118;2023-07-09T01:33:07;10.52;;;7.72;;
8331;SDS011;4203;48.144;14.118;2023-07-09T01:35:36;8.88;;;8.07;;
8331;SDS011;4203;48.144;14.118;2023-07-09T01:38:07;9.05;;;8.15;;
8331;SDS011;4203;48.144;14.118;2023-07-09T01:40:36;10.02;;;9.15;;
8331;SDS011;4203;48.144;14.118;2023-07-09T01:43:04;9.45;;;8.35;;
8331;SDS011;4203;48.144;14.118;2023-07-09T01:45:33;9.63;;;8.48;;
8331;SDS011;4203;48.144;14.118;2023-07-09T01:48:02;9.45;;;8.48;;
8331;SDS011;4203;48.144;14.118;2023-07-09T01:50:30;9.55;;;8.57;;
8331;SDS011;4203;48.144;14.118;2023-07-09T01:52:57;9.50;;;8.50;;
8331;SDS011;4203;48.144;14.118;2023-07-09T01:55:25;10.18;;;9.05;;
8331;SDS011;4203;48.144;14.118;2023-07-09T01:57:56;10.40;;;9.25;;
8331;SDS011;4203;48.144;14.118;2023-07-09T02:00:23;9.93;;;8.93;;
8331;SDS011;4203;48.144;14.118;2023-07-09T02:02:51;9.73;;;8.90;;
8331;SDS011;4203;48.144;14.118;2023-07-09T02:05:20;10.20;;;8.70;;
8331;SDS011;4203;48.144;14.118;2023-07-09T02:07:47;9.30;;;8.40;;
8331;SDS011;4203;48.144;14.118;2023-07-09T02:10:15;9.15;;;8.32;;
8331;SDS011;4203;48.144;14.118;2023-07-09T02:12:43;9.05;;;7.57;;
8331;SDS011;4203;48.144;14.118;2023-07-09T02:15:13;8.88;;;7.95;;
8331;SDS011;4203;48.144;14.118;2023-07-09T02:17:41;9.40;;;8.50;;
8331;SDS011;4203;48.144;14.118;2023-07-09T02:20:09;10.38;;;7.60;;
8331;SDS011;4203;48.144;14.118;2023-07-09T02:22:37;8.80;;;7.95;;
8331;SDS011;4203;48.144;14.118;2023-07-09T02:25:05;9.13;;;8.02;;
8331;SDS011;4203;48.144;14.118;2023-07-09T02:27:34;8.23;;;7.43;;
8331;SDS011;4203;48.144;14.118;2023-07-09T02:30:03;10.77;;;8.77;;
8331;SDS011;4203;48.144;14.118;2023-07-09T02:32:35;10.05;;;8.90;;
8331;SDS011;4203;48.144;14.118;2023-07-09T02:35:03;15.10;;;8.43;;
8331;SDS011;4203;48.144;14.118;2023-07-09T02:37:31;10.05;;;8.82;;
8331;SDS011;4203;48.144;14.118;2023-07-09T02:39:58;9.05;;;8.25;;
8331;SDS011;4203;48.144;14.118;2023-07-09T02:42:25;8.60;;;7.80;;
8331;SDS011;4203;48.144;14.118;2023-07-09T02:44:52;8.65;;;7.80;;
8331;SDS011;4203;48.144;14.118;2023-07-09T02:47:20;8.15;;;7.45;;
8331;SDS011;4203;48.144;14.118;2023-07-09T02:49:49;13.68;;;8.25;;
8331;SDS011;4203;48.144;14.118;2023-07-09T02:52:16;9.68;;;8.55;;
8331;SDS011;4203;48.144;14.118;2023-07-09T02:54:43;10.55;;;8.30;;
8331;SDS011;4203;48.144;14.118;2023-07-09T02:57:11;9.38;;;8.38;;
8331;SDS011;4203;48.144;14.118;2023-07-09T02:59:38;9.05;;;7.45;;
8331;SDS011;4203;48.144;14.118;2023-07-09T03:02:06;9.55;;;8.32;;
8331;SDS011;4203;48.144;14.118;2023-07-09T03:04:33;8.52;;;6.57;;
8331;SDS011;4203;48.144;14.118;2023-07-09T03:07:02;11.70;;;7.72;;
8331;SDS011;4203;48.144;14.118;2023-07-09T03:09:30;9.35;;;8.43;;
8331;SDS011;4203;48.144;14.118;2023-07-09T03:11:57;8.73;;;7.93;;
8331;SDS011;4203;48.144;14.118;2023-07-09T03:14:24;8.05;;;7.35;;
8331;SDS011;4203;48.144;14.118;2023-07-09T03:16:51;8.07;;;7.07;;
8331;SDS011;4203;48.144;14.118;2023-07-09T03:19:19;10.50;;;7.90;;
8331;SDS011;4203;48.144;14.118;2023-07-09T03:21:46;10.60;;;8.40;;
8331;SDS011;4203;48.144;14.118;2023-07-09T03:24:15;9.18;;;8.23;;
8331;SDS011;4203;48.144;14.118;2023-07-09T03:26:43;9.15;;;7.80;;
8331;SDS011;4203;48.144;14.118;2023-07-09T03:29:12;9.05;;;7.63;;
8331;SDS011;4203;48.144;14.118;2023-07-09T03:31:39;11.00;;;7.65;;
8331;SDS011;4203;48.144;14.118;2023-07-09T03:34:06;8.85;;;8.05;;
8331;SDS011;4203;48.144;14.118;2023-07-09T03:36:33;9.45;;;7.90;;
8331;SDS011;4203;48.144;14.118;2023-07-09T03:39:02;10.80;;;8.02;;
8331;SDS011;4203;48.144;14.118;2023-07-09T03:41:31;9.45;;;7.68;;
8331;SDS011;4203;48.144;14.118;2023-07-09T03:43:59;8.68;;;7.88;;
8331;SDS011;4203;48.144;14.118;2023-07-09T03:46:26;9.32;;;8.25;;
8331;SDS011;4203;48.144;14.118;2023-07-09T03:48:54;9.95;;;8.05;;
8331;SDS011;4203;48.144;14.118;2023-07-09T03:51:22;8.18;;;7.45;;
8331;SDS011;4203;48.144;14.118;2023-07-09T03:53:49;10.65;;;7.60;;
8331;SDS011;4203;48.144;14.118;2023-07-09T03:56:16;8.93;;;8.07;;
8331;SDS011;4203;48.144;14.118;2023-07-09T03:58:45;8.27;;;7.45;;
8331;SDS011;4203;48.144;14.118;2023-07-09T04:01:12;9.60;;;7.38;;
8331;SDS011;4203;48.144;14.118;2023-07-09T04:03:41;12.38;;;8.80;;
8331;SDS011;4203;48.144;14.118;2023-07-09T04:06:08;13.98;;;8.02;;
8331;SDS011;4203;48.144;14.118;2023-07-09T04:08:36;13.20;;;9.55;;
8331;SDS011;4203;48.144;14.118;2023-07-09T04:11:04;14.52;;;9.45;;
8331;SDS011;4203;48.144;14.118;2023-07-09T04:13:32;10.52;;;9.00;;
8331;SDS011;4203;48.144;14.118;2023-07-09T04:16:00;15.82;;;9.57;;
8331;SDS011;4203;48.144;14.118;2023-07-09T04:18:28;9.57;;;8.68;;
8331;SDS011;4203;48.144;14.118;2023-07-09T04:20:55;10.57;;;9.13;;
8331;SDS011;4203;48.144;14.118;2023-07-09T04:23:22;11.77;;;9.70;;
8331;SDS011;4203;48.144;14.118;2023-07-09T04:25:50;11.50;;;9.48;;
8331;SDS011;4203;48.144;14.118;2023-07-09T04:28:17;10.40;;;9.40;;
8331;SDS011;4203;48.144;14.118;2023-07-09T04:30:45;10.98;;;9.02;;
8331;SDS011;4203;48.144;14.118;2023-07-09T04:33:16;10.43;;;9.43;;
8331;SDS011;4203;48.144;14.118;2023-07-09T04:35:44;13.63;;;9.35;;
8331;SDS011;4203;48.144;14.118;2023-07-09T04:38:12;9.63;;;8.60;;
8331;SDS011;4203;48.144;14.118;2023-07-09T04:40:40;11.23;;;9.18;;
8331;SDS011;4203;48.144;14.118;2023-07-09T04:43:07;11.70;;;9.27;;
8331;SDS011;4203;48.144;14.118;2023-07-09T04:45:34;10.45;;;9.18;;
8331;SDS011;4203;48.144;14.118;2023-07-09T04:48:02;11.82;;;8.88;;
8331;SDS011;4203;48.144;14.118;2023-07-09T04:50:31;10.30;;;9.20;;
8331;SDS011;4203;48.144;14.118;2023-07-09T04:52:59;10.27;;;9.27;;
8331;SDS011;4203;48.144;14.118;2023-07-09T04:55:27;9.57;;;8.60;;
8331;SDS011;4203;48.144;14.118;2023-07-09T04:57:54;12.77;;;8.48;;
8331;SDS011;4203;48.144;14.118;2023-07-09T05:00:21;10.70;;;8.18;;
8331;SDS011;4203;48.144;14.118;2023-07-09T05:02:49;12.68;;;9.15;;
8331;SDS011;4203;48.144;14.118;2023-07-09T05:05:16;11.55;;;8.32;;
8331;SDS011;4203;48.144;14.118;2023-07-09T05:07:45;9.82;;;8.63;;
8331;SDS011;4203;48.144;14.118;2023-07-09T05:10:13;13.15;;;8.52;;
8331;SDS011;4203;48.144;14.118;2023-07-09T05:12:47;12.32;;;8.65;;
8331;SDS011;4203;48.144;14.118;2023-07-09T05:15:16;11.23;;;8.70;;
8331;SDS011;4203;48.144;14.118;2023-07-09T05:17:43;14.32;;;10.13;;
8331;SDS011;4203;48.144;14.118;2023-07-09T05:20:13;10.25;;;9.02;;
8331;SDS011;4203;48.144;14.118;2023-07-09T05:22:41;10.63;;;9.43;;
8331;SDS011;4203;48.144;14.118;2023-07-09T05:25:10;15.55;;;8.65;;
8331;SDS011;4203;48.144;14.118;2023-07-09T05:27:37;9.90;;;8.10;;
8331;SDS011;4203;48.144;14.118;2023-07-09T05:30:05;12.07;;;8.52;;
8331;SDS011;4203;48.144;14.118;2023-07-09T05:32:33;9.00;;;7.80;;
8331;SDS011;4203;48.144;14.118;2023-07-09T05:35:01;10.48;;;8.18;;
8331;SDS011;4203;48.144;14.118;2023-07-09T05:37:29;9.02;;;7.97;;
8331;SDS011;4203;48.144;14.118;2023-07-09T05:39:57;9.60;;;7.47;;
8331;SDS011;4203;48.144;14.118;2023-07-09T05:42:27;7.30;;;6.60;;
8331;SDS011;4203;48.144;14.118;2023-07-09T05:44:55;9.57;;;7.50;;
8331;SDS011;4203;48.144;14.118;2023-07-09T05:47:22;8.95;;;7.60;;
8331;SDS011;4203;48.144;14.118;2023-07-09T05:49:49;9.05;;;7.20;;
8331;SDS011;4203;48.144;14.118;2023-07-09T05:52:17;8.13;;;7.30;;
8331;SDS011;4203;48.144;14.118;2023-07-09T05:54:45;7.63;;;6.82;;
8331;SDS011;4203;48.144;14.118;2023-07-09T05:57:14;8.18;;;7.38;;
8331;SDS011;4203;48.144;14.118;2023-07-09T05:59:44;9.45;;;6.65;;
8331;SDS011;4203;48.144;14.118;2023-07-09T06:02:12;11.13;;;6.78;;
8331;SDS011;4203;48.144;14.118;2023-07-09T06:04:40;9.57;;;7.30;;
8331;SDS011;4203;48.144;14.118;2023-07-09T06:07:08;7.30;;;6.57;;
8331;SDS011;4203;48.144;14.118;2023-07-09T06:09:36;7.85;;;7.03;;
8331;SDS011;4203;48.144;14.118;2023-07-09T06:12:04;15.48;;;7.65;;
8331;SDS011;4203;48.144;14.118;2023-07-09T06:14:32;9.40;;;7.10;;
8331;SDS011;4203;48.144;14.118;2023-07-09T06:17:01;7.65;;;6.85;;
8331;SDS011;4203;48.144;14.118;2023-07-09T06:19:28;10.05;;;7.00;;
8331;SDS011;4203;48.144;14.118;2023-07-09T06:21:56;8.55;;;7.65;;
8331;SDS011;4203;48.144;14.118;2023-07-09T06:24:23;10.50;;;6.75;;
8331;SDS011;4203;48.144;14.118;2023-07-09T06:26:50;10.40;;;7.35;;
8331;SDS011;4203;48.144;14.118;2023-07-09T06:29:18;7.47;;;6.75;;
8331;SDS011;4203;48.144;14.118;2023-07-09T06:31:45;8.18;;;7.38;;
8331;SDS011;4203;48.144;14.118;2023-07-09T06:34:15;8.50;;;6.97;;
8331;SDS011;4203;48.144;14.118;2023-07-09T06:36:42;8.30;;;6.55;;
8331;SDS011;4203;48.144;14.118;2023-07-09T06:39:09;6.70;;;6.07;;
8331;SDS011;4203;48.144;14.118;2023-07-09T06:41:37;7.25;;;6.47;;
8331;SDS011;4203;48.144;14.118;2023-07-09T06:44:05;7.63;;;6.50;;
8331;SDS011;4203;48.144;14.118;2023-07-09T06:46:32;8.57;;;7.25;;
8331;SDS011;4203;48.144;14.118;2023-07-09T06:49:00;7.57;;;6.57;;
8331;SDS011;4203;48.144;14.118;2023-07-09T06:51:29;7.35;;;6.40;;
8331;SDS011;4203;48.144;14.118;2023-07-09T06:53:56;9.80;;;6.43;;
8331;SDS011;4203;48.144;14.118;2023-07-09T06:56:23;7.72;;;6.80;;
8331;SDS011;4203;48.144;14.118;2023-07-09T06:58:51;8.00;;;6.55;;
8331;SDS011;4203;48.144;14.118;2023-07-09T07:01:18;10.35;;;6.82;;
8331;SDS011;4203;48.144;14.118;2023-07-09T07:03:45;10.05;;;7.80;;
8331;SDS011;4203;48.144;14.118;2023-07-09T07:06:13;9.02;;;6.35;;
8331;SDS011;4203;48.144;14.118;2023-07-09T07:08:42;8.55;;;6.07;;
8331;SDS011;4203;48.144;14.118;2023-07-09T07:11:10;7.80;;;6.55;;
8331;SDS011;4203;48.144;14.118;2023-07-09T07:13:37;7.15;;;5.93;;
8331;SDS011;4203;48.144;14.118;2023-07-09T07:16:07;7.03;;;6.22;;
8331;SDS011;4203;48.144;14.118;2023-07-09T07:18:35;7.35;;;6.60;;
8331;SDS011;4203;48.144;14.118;2023-07-09T07:21:03;9.13;;;6.13;;
8331;SDS011;4203;48.144;14.118;2023-07-09T07:23:31;8.00;;;6.03;;
8331;SDS011;4203;48.144;14.118;2023-07-09T07:26:00;8.82;;;6.97;;
8331;SDS011;4203;48.144;14.118;2023-07-09T07:28:29;6.82;;;6.13;;
8331;SDS011;4203;48.144;14.118;2023-07-09T07:30:59;7.35;;;6.00;;
8331;SDS011;4203;48.144;14.118;2023-07-09T07:33:29;6.97;;;6.28;;
8331;SDS011;4203;48.144;14.118;2023-07-09T07:35:56;8.65;;;6.05;;
8331;SDS011;4203;48.144;14.118;2023-07-09T07:38:23;8.30;;;6.32;;
8331;SDS011;4203;48.144;14.118;2023-07-09T07:40:51;10.25;;;6.05;;
8331;SDS011;4203;48.144;14.118;2023-07-09T07:43:19;7.50;;;5.95;;
8331;SDS011;4203;48.144;14.118;2023-07-09T07:45:47;7.07;;;6.30;;
8331;SDS011;4203;48.144;14.118;2023-07-09T07:48:14;8.77;;;6.18;;
8331;SDS011;4203;48.144;14.118;2023-07-09T07:50:42;6.93;;;5.97;;
8331;SDS011;4203;48.144;14.118;2023-07-09T07:53:11;7.15;;;6.15;;
8331;SDS011;4203;48.144;14.118;2023-07-09T07:55:38;8.75;;;6.47;;
8331;SDS011;4203;48.144;14.118;2023-07-09T07:58:07;9.07;;;6.68;;
8331;SDS011;4203;48.144;14.118;2023-07-09T08:00:37;6.55;;;5.95;;
8331;SDS011;4203;48.144;14.118;2023-07-09T08:03:05;7.13;;;6.00;;
8331;SDS011;4203;48.144;14.118;2023-07-09T08:05:32;8.45;;;6.82;;
8331;SDS011;4203;48.144;14.118;2023-07-09T08:08:00;7.95;;;6.30;;
8331;SDS011;4203;48.144;14.118;2023-07-09T08:10:28;6.63;;;6.13;;
8331;SDS011;4203;48.144;14.118;2023-07-09T08:12:56;8.52;;;6.10;;
8331;SDS011;4203;48.144;14.118;2023-07-09T08:15:23;6.38;;;5.78;;
8331;SDS011;4203;48.144;14.118;2023-07-09T08:17:52;7.13;;;6.03;;
8331;SDS011;4203;48.144;14.118;2023-07-09T08:20:20;8.27;;;6.45;;
8331;SDS011;4203;48.144;14.118;2023-07-09T08:22:47;9.38;;;5.82;;
8331;SDS011;4203;48.144;14.118;2023-07-09T08:25:17;8.10;;;5.90;;
8331;SDS011;4203;48.144;14.118;2023-07-09T08:27:44;6.43;;;5.70;;
8331;SDS011;4203;48.144;14.118;2023-07-09T08:30:11;8.77;;;6.10;;
8331;SDS011;4203;48.144;14.118;2023-07-09T08:32:39;5.90;;;5.40;;
8331;SDS011;4203;48.144;14.118;2023-07-09T08:35:08;7.28;;;5.82;;
8331;SDS011;4203;48.144;14.118;2023-07-09T08:37:37;6.75;;;5.53;;
8331;SDS011;4203;48.144;14.118;2023-07-09T08:40:04;6.25;;;5.65;;
8331;SDS011;4203;48.144;14.118;2023-07-09T08:42:36;6.82;;;5.90;;
8331;SDS011;4203;48.144;14.118;2023-07-09T08:45:12;14.32;;;5.60;;
8331;SDS011;4203;48.144;14.118;2023-07-09T08:47:51;9.32;;;6.50;;
8331;SDS011;4203;48.144;14.118;2023-07-09T08:50:27;6.55;;;5.80;;
8331;SDS011;4203;48.144;14.118;2023-07-09T08:53:01;8.70;;;6.30;;
8331;SDS011;4203;48.144;14.118;2023-07-09T08:55:29;7.63;;;6.40;;
8331;SDS011;4203;48.144;14.118;2023-07-09T08:58:04;6.35;;;5.85;;
8331;SDS011;4203;48.144;14.118;2023-07-09T09:00:40;6.80;;;6.10;;
8331;SDS011;4203;48.144;14.118;2023-07-09T09:03:13;11.20;;;6.10;;
8331;SDS011;4203;48.144;14.118;2023-07-09T09:05:45;9.05;;;6.10;;
8331;SDS011;4203;48.144;14.118;2023-07-09T09:08:19;6.78;;;5.70;;
8331;SDS011;4203;48.144;14.118;2023-07-09T09:10:58;5.90;;;5.35;;
8331;SDS011;4203;48.144;14.118;2023-07-09T09:13:34;7.47;;;6.07;;
8331;SDS011;4203;48.144;14.118;2023-07-09T09:16:04;6.68;;;6.13;;
8331;SDS011;4203;48.144;14.118;2023-07-09T09:18:49;7.85;;;5.70;;
8331;SDS011;4203;48.144;14.118;2023-07-09T09:21:21;8.43;;;5.93;;
8331;SDS011;4203;48.144;14.118;2023-07-09T09:23:51;6.22;;;5.63;;
8331;SDS011;4203;48.144;14.118;2023-07-09T09:26:22;7.72;;;5.57;;
8331;SDS011;4203;48.144;14.118;2023-07-09T09:28:52;6.63;;;5.78;;
8331;SDS011;4203;48.144;14.118;2023-07-09T09:31:19;9.15;;;6.20;;
8331;SDS011;4203;48.144;14.118;2023-07-09T09:33:47;8.85;;;6.47;;
8331;SDS011;4203;48.144;14.118;2023-07-09T09:36:17;7.05;;;6.35;;
8331;SDS011;4203;48.144;14.118;2023-07-09T09:38:47;8.57;;;7.47;;
8331;SDS011;4203;48.144;14.118;2023-07-09T09:41:16;7.90;;;6.72;;
8331;SDS011;4203;48.144;14.118;2023-07-09T09:43:46;7.10;;;5.80;;
8331;SDS011;4203;48.144;14.118;2023-07-09T09:46:18;6.30;;;5.70;;
8331;SDS011;4203;48.144;14.118;2023-07-09T09:48:47;7.57;;;5.15;;
8331;SDS011;4203;48.144;14.118;2023-07-09T09:51:15;6.32;;;5.68;;
8331;SDS011;4203;48.144;14.118;2023-07-09T09:53:46;6.63;;;6.00;;
8331;SDS011;4203;48.144;14.118;2023-07-09T09:56:17;7.05;;;6.30;;
8331;SDS011;4203;48.144;14.118;2023-07-09T09:58:46;8.30;;;6.00;;
8331;SDS011;4203;48.144;14.118;2023-07-09T10:01:21;8.95;;;7.03;;
8331;SDS011;4203;48.144;14.118;2023-07-09T10:03:55;7.22;;;5.90;;
8331;SDS011;4203;48.144;14.118;2023-07-09T10:06:28;9.68;;;6.00;;
8331;SDS011;4203;48.144;14.118;2023-07-09T10:09:02;5.72;;;5.10;;
8331;SDS011;4203;48.144;14.118;2023-07-09T10:11:44;7.43;;;5.70;;
8331;SDS011;4203;48.144;14.118;2023-07-09T10:14:17;20.00;;;18.17;;
8331;SDS011;4203;48.144;14.118;2023-07-09T10:16:59;5.88;;;5.38;;
8331;SDS011;4203;48.144;14.118;2023-07-09T10:19:34;5.68;;;5.05;;
8331;SDS011;4203;48.144;14.118;2023-07-09T10:22:07;6.50;;;5.15;;
8331;SDS011;4203;48.144;14.118;2023-07-09T10:24:47;6.78;;;5.38;;
8331;SDS011;4203;48.144;14.118;2023-07-09T10:27:25;5.72;;;4.78;;
8331;SDS011;4203;48.144;14.118;2023-07-09T10:30:01;5.45;;;5.00;;
8331;SDS011;4203;48.144;14.118;2023-07-09T10:32:47;6.18;;;4.50;;
8331;SDS011;4203;48.144;14.118;2023-07-09T10:35:28;6.07;;;5.03;;
8331;SDS011;4203;48.144;14.118;2023-07-09T10:38:07;4.97;;;4.50;;
8331;SDS011;4203;48.144;14.118;2023-07-09T10:40:54;5.13;;;4.70;;
8331;SDS011;4203;48.144;14.118;2023-07-09T10:43:25;5.50;;;5.10;;
8331;SDS011;4203;48.144;14.118;2023-07-09T10:46:01;7.03;;;5.40;;
8331;SDS011;4203;48.144;14.118;2023-07-09T10:48:34;4.97;;;4.57;;
8331;SDS011;4203;48.144;14.118;2023-07-09T10:51:04;5.78;;;4.80;;
8331;SDS011;4203;48.144;14.118;2023-07-09T10:53:43;4.95;;;4.55;;
8331;SDS011;4203;48.144;14.118;2023-07-09T10:56:14;5.20;;;4.80;;
8331;SDS011;4203;48.144;14.118;2023-07-09T10:58:47;6.35;;;5.10;;
8331;SDS011;4203;48.144;14.118;2023-07-09T11:01:19;7.43;;;4.53;;
8331;SDS011;4203;48.144;14.118;2023-07-09T11:03:54;5.30;;;4.80;;
8331;SDS011;4203;48.144;14.118;2023-07-09T11:06:28;5.55;;;4.53;;
8331;SDS011;4203;48.144;14.118;2023-07-09T11:09:00;4.88;;;4.32;;
8331;SDS011;4203;48.144;14.118;2023-07-09T11:11:33;5.22;;;4.43;;
8331;SDS011;4203;48.144;14.118;2023-07-09T11:14:14;5.95;;;5.35;;
8331;SDS011;4203;48.144;14.118;2023-07-09T11:16:49;5.47;;;5.07;;
8331;SDS011;4203;48.144;14.118;2023-07-09T11:19:17;5.13;;;4.72;;
8331;SDS011;4203;48.144;14.118;2023-07-09T11:21:56;4.68;;;4.38;;
8331;SDS011;4203;48.144;14.118;2023-07-09T11:24:30;8.23;;;4.90;;
8331;SDS011;4203;48.144;14.118;2023-07-09T11:27:02;4.55;;;4.22;;
8331;SDS011;4203;48.144;14.118;2023-07-09T11:29:29;4.47;;;4.05;;
8331;SDS011;4203;48.144;14.118;2023-07-09T11:32:07;4.70;;;4.13;;
8331;SDS011;4203;48.144;14.118;2023-07-09T11:34:44;5.68;;;4.15;;
8331;SDS011;4203;48.144;14.118;2023-07-09T11:37:13;4.60;;;4.22;;
8331;SDS011;4203;48.144;14.118;2023-07-09T11:39:42;6.18;;;4.78;;
8331;SDS011;4203;48.144;14.118;2023-07-09T11:42:25;4.32;;;3.92;;
8331;SDS011;4203;48.144;14.118;2023-07-09T11:44:57;14.48;;;5.22;;
8331;SDS011;4203;48.144;14.118;2023-07-09T11:47:30;4.32;;;3.97;;
8331;SDS011;4203;48.144;14.118;2023-07-09T11:50:02;4.47;;;4.18;;
8331;SDS011;4203;48.144;14.118;2023-07-09T11:52:32;3.97;;;3.67;;
8331;SDS011;4203;48.144;14.118;2023-07-09T11:55:03;4.85;;;4.40;;
8331;SDS011;4203;48.144;14.118;2023-07-09T11:57:50;7.07;;;4.28;;
8331;SDS011;4203;48.144;14.118;2023-07-09T12:00:19;4.63;;;4.32;;
8331;SDS011;4203;48.144;14.118;2023-07-09T12:02:48;4.55;;;4.22;;
8331;SDS011;4203;48.144;14.118;2023-07-09T12:05:21;4.88;;;4.22;;
8331;SDS011;4203;48.144;14.118;2023-07-09T12:07:52;4.03;;;3.63;;
8331;SDS011;4203;48.144;14.118;2023-07-09T12:10:21;4.45;;;3.95;;
8331;SDS011;4203;48.144;14.118;2023-07-09T12:12:55;9.35;;;4.30;;
8331;SDS011;4203;48.144;14.118;2023-07-09T12:15:24;4.35;;;3.65;;
8331;SDS011;4203;48.144;14.118;2023-07-09T12:17:54;4.30;;;3.40;;
8331;SDS011;4203;48.144;14.118;2023-07-09T12:20:22;5.07;;;3.88;;
8331;SDS011;4203;48.144;14.118;2023-07-09T12:22:50;5.15;;;3.70;;
8331;SDS011;4203;48.144;14.118;2023-07-09T12:25:18;3.63;;;3.42;;
8331;SDS011;4203;48.144;14.118;2023-07-09T12:27:48;4.38;;;4.00;;
8331;SDS011;4203;48.144;14.118;2023-07-09T12:30:17;4.05;;;3.63;;
8331;SDS011;4203;48.144;14.118;2023-07-09T12:32:45;5.03;;;4.55;;
8331;SDS011;4203;48.144;14.118;2023-07-09T12:35:15;4.65;;;4.13;;
8331;SDS011;4203;48.144;14.118;2023-07-09T12:37:44;4.13;;;3.85;;
8331;SDS011;4203;48.144;14.118;2023-07-09T12:40:13;5.40;;;3.67;;
8331;SDS011;4203;48.144;14.118;2023-07-09T12:42:43;4.75;;;4.45;;
8331;SDS011;4203;48.144;14.118;2023-07-09T12:45:14;4.45;;;4.07;;
8331;SDS011;4203;48.144;14.118;2023-07-09T12:47:45;4.57;;;3.90;;
8331;SDS011;4203;48.144;14.118;2023-07-09T12:50:21;5.32;;;4.40;;
8331;SDS011;4203;48.144;14.118;2023-07-09T12:52:55;4.22;;;3.88;;
8331;SDS011;4203;48.144;14.118;2023-07-09T12:55:40;4.00;;;3.55;;
8331;SDS011;4203;48.144;14.118;2023-07-09T12:58:11;4.57;;;4.28;;
8331;SDS011;4203;48.144;14.118;2023-07-09T13:00:46;5.13;;;4.15;;
8331;SDS011;4203;48.144;14.118;2023-07-09T13:03:18;4.70;;;4.35;;
8331;SDS011;4203;48.144;14.118;2023-07-09T13:05:54;5.38;;;4.28;;
8331;SDS011;4203;48.144;14.118;2023-07-09T13:08:24;6.28;;;4.68;;
8331;SDS011;4203;48.144;14.118;2023-07-09T13:10:51;4.03;;;3.70;;
8331;SDS011;4203;48.144;14.118;2023-07-09T13:13:20;4.28;;;3.78;;
8331;SDS011;4203;48.144;14.118;2023-07-09T13:15:51;4.07;;;3.70;;
8331;SDS011;4203;48.144;14.118;2023-07-09T13:18:22;4.22;;;3.83;;
8331;SDS011;4203;48.144;14.118;2023-07-09T13:20:51;5.93;;;4.10;;
8331;SDS011;4203;48.144;14.118;2023-07-09T13:23:21;5.45;;;4.35;;
8331;SDS011;4203;48.144;14.118;2023-07-09T13:25:50;6.78;;;4.18;;
8331;SDS011;4203;48.144;14.118;2023-07-09T13:28:20;4.78;;;4.28;;
8331;SDS011;4203;48.144;14.118;2023-07-09T13:30:53;4.35;;;4.00;;
8331;SDS011;4203;48.144;14.118;2023-07-09T13:33:23;4.13;;;3.72;;
8331;SDS011;4203;48.144;14.118;2023-07-09T13:35:51;4.47;;;4.18;;
8331;SDS011;4203;48.144;14.118;2023-07-09T13:38:20;4.57;;;4.18;;
8331;SDS011;4203;48.144;14.118;2023-07-09T13:40:48;4.35;;;3.97;;
8331;SDS011;4203;48.144;14.118;2023-07-09T13:43:19;4.95;;;4.30;;
8331;SDS011;4203;48.144;14.118;2023-07-09T13:45:54;4.85;;;4.22;;
8331;SDS011;4203;48.144;14.118;2023-07-09T13:48:23;4.40;;;4.10;;
8331;SDS011;4203;48.144;14.118;2023-07-09T13:50:51;4.80;;;4.32;;
8331;SDS011;4203;48.144;14.118;2023-07-09T13:53:21;4.63;;;4.22;;
8331;SDS011;4203;48.144;14.118;2023-07-09T13:55:49;4.35;;;3.97;;
8331;SDS011;4203;48.144;14.118;2023-07-09T13:58:17;4.45;;;3.95;;
8331;SDS011;4203;48.144;14.118;2023-07-09T14:00:46;4.13;;;3.83;;
8331;SDS011;4203;48.144;14.118;2023-07-09T14:03:19;4.30;;;4.00;;
8331;SDS011;4203;48.144;14.118;2023-07-09T14:05:48;4.47;;;4.18;;
8331;SDS011;4203;48.144;14.118;2023-07-09T14:08:16;5.32;;;4.22;;
8331;SDS011;4203;48.144;14.118;2023-07-09T14:10:45;4.80;;;4.10;;
8331;SDS011;4203;48.144;14.118;2023-07-09T14:13:14;4.32;;;3.92;;
8331;SDS011;4203;48.144;14.118;2023-07-09T14:15:43;4.68;;;4.28;;
8331;SDS011;4203;48.144;14.118;2023-07-09T14:18:11;4.38;;;4.07;;
8331;SDS011;4203;48.144;14.118;2023-07-09T14:20:42;5.50;;;3.70;;
8331;SDS011;4203;48.144;14.118;2023-07-09T14:23:10;4.28;;;3.90;;
8331;SDS011;4203;48.144;14.118;2023-07-09T14:25:39;4.50;;;4.10;;
8331;SDS011;4203;48.144;14.118;2023-07-09T14:28:08;3.83;;;3.53;;
8331;SDS011;4203;48.144;14.118;2023-07-09T14:30:38;4.38;;;3.97;;
8331;SDS011;4203;48.144;14.118;2023-07-09T14:33:08;5.18;;;4.10;;
8331;SDS011;4203;48.144;14.118;2023-07-09T14:35:39;5.35;;;4.57;;
8331;SDS011;4203;48.144;14.118;2023-07-09T14:38:11;4.20;;;3.80;;
8331;SDS011;4203;48.144;14.118;2023-07-09T14:40:43;4.45;;;4.13;;
8331;SDS011;4203;48.144;14.118;2023-07-09T14:43:11;5.38;;;3.90;;
8331;SDS011;4203;48.144;14.118;2023-07-09T14:45:38;4.57;;;4.15;;
8331;SDS011;4203;48.144;14.118;2023-07-09T14:48:09;4.93;;;3.90;;
8331;SDS011;4203;48.144;14.118;2023-07-09T14:50:38;4.15;;;3.85;;
8331;SDS011;4203;48.144;14.118;2023-07-09T14:53:12;4.10;;;3.80;;
8331;SDS011;4203;48.144;14.118;2023-07-09T14:55:41;4.50;;;4.10;;
8331;SDS011;4203;48.144;14.118;2023-07-09T14:58:14;4.68;;;4.28;;
8331;SDS011;4203;48.144;14.118;2023-07-09T15:00:42;4.05;;;3.80;;
8331;SDS011;4203;48.144;14.118;2023-07-09T15:03:12;4.65;;;4.20;;
8331;SDS011;4203;48.144;14.118;2023-07-09T15:05:44;5.38;;;4.00;;
8331;SDS011;4203;48.144;14.118;2023-07-09T15:08:14;4.15;;;3.70;;
8331;SDS011;4203;48.144;14.118;2023-07-09T15:10:43;3.92;;;3.63;;
8331;SDS011;4203;48.144;14.118;2023-07-09T15:13:14;4.50;;;4.10;;